Time;durP1;ratioP1;P1;durP2;ratioP2;P2;SDS_P1;SDS_P2;PMS_P1;PMS_P2;Temp;Humidity;BMP_temperature;BMP_pressure;BME280_temperature;BME280_humidity;BME280_pressure;Samples;Min_cycle;Max_cycle;Signal;HPM_P1;HPM_P2
2022/09/03 03:51:46;;;;;;;5.37;4.90;;;;;;;-143.84;94.33;45136.66;5343616;22;20566;-79
2022/09/03 03:54:13;;;;;;;11.83;5.90;;;;;;;-143.84;94.39;45127.13;5093539;28;20894;-76
2022/09/03 03:56:41;;;;;;;7.33;5.63;;;;;;;-143.84;94.42;45123.34;5094278;28;20502;-79
2022/09/03 03:59:08;;;;;;;12.50;5.40;;;;;;;-143.84;94.25;45123.34;5093973;28;20452;-77
2022/09/03 04:01:35;;;;;;;8.33;6.10;;;;;;;-143.84;94.37;45144.28;5088526;28;20857;-78
2022/09/03 04:04:02;;;;;;;5.70;5.30;;;;;;;-143.84;94.18;45127.13;5073882;28;20428;-78
2022/09/03 04:06:29;;;;;;;6.63;5.33;;;;;;;-143.84;94.27;45123.34;5073506;28;20499;-78
2022/09/03 04:08:58;;;;;;;7.13;6.00;;;;;;;-143.84;94.39;45157.59;5073888;28;20570;-78
2022/09/03 04:11:26;;;;;;;6.97;6.20;;;;;;;-143.84;94.45;45117.63;5073659;28;20523;-77
2022/09/03 04:13:54;;;;;;;8.33;6.40;;;;;;;-143.84;94.60;45130.94;5073250;28;20436;-78
2022/09/03 04:16:23;;;;;;;6.20;5.40;;;;;;;-143.84;94.79;45130.94;5090324;28;20932;-77
2022/09/03 04:18:50;;;;;;;6.57;6.03;;;;;;;-143.84;94.83;45150.00;5093584;28;20444;-78
2022/09/03 04:21:19;;;;;;;9.63;6.30;;;;;;;-143.84;94.76;45138.56;5093304;28;20963;-78
2022/09/03 04:23:49;;;;;;;12.03;6.53;;;;;;;-143.84;94.85;45111.91;5093317;28;20791;-78
2022/09/03 04:26:21;;;;;;;11.10;6.80;;;;;;;-143.84;94.70;45138.56;5092934;28;20497;-77
2022/09/03 04:28:48;;;;;;;8.60;6.43;;;;;;;-143.84;94.42;45130.94;5093349;28;20444;-77
2022/09/03 04:31:17;;;;;;;10.07;6.77;;;;;;;-143.84;94.79;45134.75;5093045;28;20444;-78
2022/09/03 04:33:44;;;;;;;7.07;6.50;;;;;;;-143.84;94.59;45132.84;5093341;28;20455;-77
2022/09/03 04:36:13;;;;;;;11.63;6.60;;;;;;;-143.84;94.54;45144.28;5092604;28;20432;-77
2022/09/03 04:38:42;;;;;;;13.00;7.40;;;;;;;-143.84;94.44;45096.66;5093097;28;20432;-77
2022/09/03 04:41:13;;;;;;;13.17;7.00;;;;;;;-143.84;94.35;45129.03;5093235;28;20440;-78
2022/09/03 04:43:42;;;;;;;12.80;7.20;;;;;;;-143.84;94.42;45136.66;5092709;28;20436;-77
2022/09/03 04:46:11;;;;;;;9.40;8.30;;;;;;;-143.84;94.25;45159.50;5093111;28;20595;-78
2022/09/03 04:48:39;;;;;;;9.13;7.10;;;;;;;-143.84;93.96;45148.09;5092771;28;20542;-78
2022/09/03 04:51:09;;;;;;;9.57;7.47;;;;;;;-143.84;93.63;45144.28;5092813;28;20528;-78
2022/09/03 04:53:38;;;;;;;10.90;7.50;;;;;;;-143.84;93.57;45127.13;5092057;28;20467;-77
2022/09/03 04:56:13;;;;;;;17.20;8.47;;;;;;;-143.84;93.24;45132.84;5092569;28;20432;-77
2022/09/03 04:58:43;;;;;;;11.77;8.97;;;;;;;-143.84;92.98;45110.00;5091499;28;20944;-78
2022/09/03 05:01:10;;;;;;;11.97;7.97;;;;;;;-143.84;92.73;45148.09;5092859;28;20436;-78
2022/09/03 05:03:37;;;;;;;9.67;8.20;;;;;;;-143.84;92.86;45132.84;5092433;28;20444;-78
2022/09/03 05:06:06;;;;;;;8.10;7.30;;;;;;;-143.84;92.79;45146.19;5092693;28;20489;-78
2022/09/03 05:08:36;;;;;;;8.70;7.50;;;;;;;-143.84;92.54;45119.53;5091958;28;20488;-77
2022/09/03 05:11:03;;;;;;;8.90;7.20;;;;;;;-143.84;92.67;45134.75;5092323;28;20436;-77
2022/09/03 05:13:32;;;;;;;8.00;7.23;;;;;;;-143.84;92.77;45121.44;5092802;28;20502;-77
2022/09/03 05:16:01;;;;;;;16.50;6.93;;;;;;;-143.84;92.63;45151.91;5092295;28;20533;-77
2022/09/03 05:18:29;;;;;;;7.23;6.73;;;;;;;-143.84;92.71;45121.44;5092192;28;20523;-78
2022/09/03 05:21:00;;;;;;;8.47;7.37;;;;;;;-143.84;91.82;45132.84;5092535;28;20917;-78
2022/09/03 05:23:27;;;;;;;8.97;8.13;;;;;;;-143.84;91.63;45129.03;5091934;28;20435;-78
2022/09/03 05:25:59;;;;;;;9.10;8.20;;;;;;;-143.84;91.54;45125.22;5092307;28;20432;-78
2022/09/03 05:28:27;;;;;;;9.10;8.20;;;;;;;-143.84;91.18;45130.94;5091898;28;20533;-78
2022/09/03 05:31:04;;;;;;;8.70;7.90;;;;;;;-143.84;91.47;45125.22;5092462;28;20440;-78
2022/09/03 05:33:34;;;;;;;9.60;8.50;;;;;;;-143.84;91.43;45113.81;5092367;28;20436;-78
2022/09/03 05:36:03;;;;;;;10.87;9.13;;;;;;;-143.84;91.38;45140.47;5092316;28;20434;-78
2022/09/03 05:38:30;;;;;;;13.40;9.83;;;;;;;-143.84;91.26;45138.56;5092163;28;20427;-78
2022/09/03 05:40:59;;;;;;;10.20;9.20;;;;;;;-143.84;91.18;45121.44;5092011;28;20432;-78
2022/09/03 05:43:27;;;;;;;12.57;10.17;;;;;;;-143.84;91.19;45129.03;5092010;28;20477;-78
2022/09/03 05:45:59;;;;;;;14.60;9.80;;;;;;;-143.84;91.18;45134.75;5091834;28;20501;-78
2022/09/03 05:48:28;;;;;;;14.80;11.00;;;;;;;-143.84;91.13;45150.00;5091801;28;20840;-78
2022/09/03 05:51:02;;;;;;;16.93;11.03;;;;;;;-143.84;91.15;45157.59;5091908;28;20479;-78
2022/09/03 05:53:30;;;;;;;16.70;12.57;;;;;;;-143.84;91.09;45146.19;5091197;28;20475;-78
2022/09/03 05:55:58;;;;;;;17.10;11.70;;;;;;;-143.84;90.78;45125.22;5091542;28;20444;-78
2022/09/03 05:58:30;;;;;;;15.73;11.67;;;;;;;-143.84;90.38;45142.38;5091393;28;20446;-78
2022/09/03 06:00:57;;;;;;;15.00;10.93;;;;;;;-143.84;90.04;45130.94;5091798;28;20447;-78
2022/09/03 06:03:24;;;;;;;16.03;9.73;;;;;;;-143.84;89.42;45127.13;5091426;28;20925;-78
2022/09/03 06:05:54;;;;;;;17.90;10.83;;;;;;;-143.84;89.37;45125.22;5091342;28;20504;-77
2022/09/03 06:08:22;;;;;;;19.90;11.30;;;;;;;-143.84;89.45;45096.66;5091474;28;20491;-78
2022/09/03 06:10:50;;;;;;;16.20;11.50;;;;;;;-143.84;89.29;45142.38;5091060;28;20440;-77
2022/09/03 06:13:17;;;;;;;12.83;10.40;;;;;;;-143.84;88.86;45104.28;5091349;28;20439;-78
2022/09/03 06:15:45;;;;;;;16.63;11.60;;;;;;;-143.84;88.68;45134.75;5081674;28;20989;-78
2022/09/03 06:18:12;;;;;;;14.80;10.80;;;;;;;-143.84;88.70;45129.03;5070667;28;21076;-77
2022/09/03 06:20:39;;;;;;;17.90;13.17;;;;;;;-143.84;88.65;45136.66;5070545;28;20448;-77
2022/09/03 06:23:09;;;;;;;22.57;12.37;;;;;;;-143.84;88.77;45125.22;5070614;28;21004;-77
2022/09/03 06:25:36;;;;;;;16.93;12.20;;;;;;;-143.84;88.05;45115.72;5070693;28;20445;-77
2022/09/03 06:28:03;;;;;;;19.43;11.43;;;;;;;-143.84;88.24;45130.94;5070593;28;21003;-79
2022/09/03 06:30:30;;;;;;;18.60;11.77;;;;;;;-143.84;88.76;45123.34;5070795;28;20440;-77
2022/09/03 06:32:58;;;;;;;20.97;12.57;;;;;;;-143.84;88.69;45117.63;5070468;28;21065;-77
2022/09/03 06:35:25;;;;;;;15.20;12.87;;;;;;;-143.84;88.81;45138.56;5070852;28;20492;-77
2022/09/03 06:37:52;;;;;;;15.10;12.47;;;;;;;-143.84;87.85;45136.66;5070760;28;20445;-77
2022/09/03 06:40:22;;;;;;;17.13;11.60;;;;;;;-143.84;86.89;45130.94;5070637;28;20518;-77
2022/09/03 06:42:59;;;;;;;16.53;11.57;;;;;;;-143.84;86.87;45117.63;5070662;28;20506;-77
2022/09/03 06:45:27;;;;;;;19.77;12.40;;;;;;;-143.84;86.44;45127.13;5070530;28;20984;-78
2022/09/03 06:47:55;;;;;;;17.00;12.27;;;;;;;-143.84;86.68;45127.13;5070229;28;20484;-78
2022/09/03 06:50:22;;;;;;;16.43;12.50;;;;;;;-143.84;86.85;45104.28;5070569;28;20429;-77
2022/09/03 06:52:53;;;;;;;14.07;11.67;;;;;;;-143.84;86.59;45100.47;5070308;28;20487;-78
2022/09/03 06:55:23;;;;;;;17.70;10.83;;;;;;;-143.84;86.21;45117.63;5070625;28;20511;-78
2022/09/03 06:57:53;;;;;;;13.80;11.20;;;;;;;-143.84;85.08;45094.78;5071138;28;21079;-78
2022/09/03 07:00:20;;;;;;;14.77;10.60;;;;;;;-143.84;83.29;45117.63;5070351;28;20441;-78
2022/09/03 07:02:47;;;;;;;14.43;10.67;;;;;;;-143.84;80.45;45125.22;5070481;28;20924;-78
2022/09/03 07:05:14;;;;;;;13.13;10.30;;;;;;;-143.84;79.13;45129.03;5070426;28;20441;-78
2022/09/03 07:07:43;;;;;;;14.10;11.03;;;;;;;-143.84;78.42;45123.34;5070071;28;20468;-78
2022/09/03 07:10:10;;;;;;;11.67;10.43;;;;;;;-143.84;78.22;45104.28;5070438;28;20926;-78
2022/09/03 07:12:39;;;;;;;20.80;11.80;;;;;;;-143.84;77.46;45077.63;5070828;28;20517;-78
2022/09/03 07:15:08;;;;;;;13.40;11.50;;;;;;;-143.84;77.03;45096.66;5070715;28;20441;-77
2022/09/03 07:17:35;;;;;;;15.57;11.53;;;;;;;-143.84;75.70;45083.34;5070012;28;20451;-78
2022/09/03 07:20:03;;;;;;;14.83;10.30;;;;;;;-143.84;75.67;45098.56;5070326;28;20956;-78
2022/09/03 07:22:30;;;;;;;15.00;10.93;;;;;;;-143.84;74.99;45106.19;5072230;28;20436;-78
2022/09/03 07:24:58;;;;;;;12.10;9.50;;;;;;;-143.84;73.96;45085.25;5074319;28;20440;-78
2022/09/03 07:27:25;;;;;;;11.47;10.27;;;;;;;-143.84;74.16;45062.41;5074128;28;20989;-78
2022/09/03 07:29:53;;;;;;;11.37;10.10;;;;;;;-143.84;73.56;45087.16;5073963;28;20429;-78
2022/09/03 07:32:20;;;;;;;12.23;10.67;;;;;;;-143.84;73.32;45096.66;5073839;28;20445;-78
2022/09/03 07:34:48;;;;;;;17.60;10.03;;;;;;;-143.84;72.05;45068.13;5074081;28;20498;-78
2022/09/03 07:37:17;;;;;;;19.77;10.17;;;;;;;-143.84;71.55;45070.00;5072534;28;20432;-78
2022/09/03 07:39:45;;;;;;;10.67;9.40;;;;;;;-143.84;69.79;45081.44;5071381;28;21048;-77
2022/09/03 07:42:13;;;;;;;20.73;11.33;;;;;;;-143.84;69.85;45075.72;5071290;28;20445;-78
2022/09/03 07:44:40;;;;;;;12.30;10.30;;;;;;;-143.84;69.29;45089.06;5073143;28;20523;-78
2022/09/03 07:47:08;;;;;;;11.33;9.27;;;;;;;-143.84;68.69;45083.34;5072634;28;20950;-78
2022/09/03 07:49:35;;;;;;;11.73;9.90;;;;;;;-143.84;67.81;45087.16;5072518;28;20574;-78
2022/09/03 07:52:03;;;;;;;13.70;10.20;;;;;;;-143.84;66.40;45110.00;5073360;28;20452;-77
2022/09/03 07:54:30;;;;;;;12.20;9.17;;;;;;;-143.84;67.06;45083.34;5073556;28;20444;-78
2022/09/03 07:56:57;;;;;;;23.20;9.63;;;;;;;-143.84;67.22;45085.25;5073374;28;20467;-78
2022/09/03 07:59:25;;;;;;;10.23;8.90;;;;;;;-143.84;66.50;45085.25;5073046;28;20520;-78
2022/09/03 08:01:52;;;;;;;17.60;10.27;;;;;;;-143.84;67.64;45083.34;5073272;28;20437;-78
2022/09/03 08:04:21;;;;;;;15.07;10.60;;;;;;;-143.84;67.44;45045.25;5073369;28;20856;-78
2022/09/03 08:06:48;;;;;;;11.30;10.13;;;;;;;-143.84;66.85;45070.00;5073342;28;20536;-77
2022/09/03 08:09:15;;;;;;;12.07;10.77;;;;;;;-143.84;67.85;45054.78;5073652;28;20557;-78
2022/09/03 08:11:44;;;;;;;12.27;11.00;;;;;;;-143.84;66.83;45064.31;5073338;28;21009;-78
2022/09/03 08:14:13;;;;;;;12.70;10.93;;;;;;;-143.84;66.86;45068.13;5078470;28;20439;-78
2022/09/03 08:16:42;;;;;;;13.53;11.80;;;;;;;-143.84;66.28;45083.34;5086745;28;20456;-78
2022/09/03 08:19:10;;;;;;;18.00;11.40;;;;;;;-143.84;64.79;45062.41;5083500;28;20535;-75
2022/09/03 08:21:40;;;;;;;15.33;10.97;;;;;;;-143.84;64.12;45056.69;5083631;28;20441;-77
2022/09/03 08:24:08;;;;;;;13.27;11.27;;;;;;;-143.84;64.37;45077.63;5081017;28;20439;-77
2022/09/03 08:26:37;;;;;;;16.63;11.37;;;;;;;-143.84;65.98;45077.63;5080666;28;20433;-77
2022/09/03 08:29:05;;;;;;;13.93;10.80;;;;;;;-143.84;66.95;45071.91;5082421;28;20578;-77
2022/09/03 08:31:33;;;;;;;11.67;9.20;;;;;;;-143.84;67.99;45041.44;5084431;28;20424;-78
2022/09/03 08:34:05;;;;;;;16.83;9.87;;;;;;;-143.84;68.56;45079.53;5081441;28;20441;-79
2022/09/03 08:36:34;;;;;;;13.70;10.30;;;;;;;-143.84;69.18;45062.41;5086993;28;20441;-79
2022/09/03 08:39:08;;;;;;;14.50;9.83;;;;;;;-143.84;68.59;45077.63;5063902;28;20444;-78
2022/09/03 08:41:49;;;;;;;10.27;8.80;;;;;;;-143.84;69.84;45075.72;5084374;28;20511;-78
2022/09/03 08:44:24;;;;;;;11.03;8.63;;;;;;;-143.84;68.24;45079.53;5087586;28;20447;-76
2022/09/03 08:46:58;;;;;;;8.77;7.70;;;;;;;-143.84;66.96;45081.44;5086639;28;20441;-79
2022/09/03 08:49:31;;;;;;;8.57;7.77;;;;;;;-143.84;66.61;45079.53;5076643;28;20845;-76
2022/09/03 08:52:01;;;;;;;9.83;8.20;;;;;;;-143.84;65.16;45075.72;5081797;28;20547;-76
2022/09/03 08:54:31;;;;;;;8.23;7.43;;;;;;;-143.84;64.08;45070.00;5086288;28;20493;-79
2022/09/03 08:57:02;;;;;;;10.63;8.50;;;;;;;-143.84;64.38;45068.13;5088989;28;20459;-78
2022/09/03 08:59:31;;;;;;;11.70;8.80;;;;;;;-143.84;64.45;45083.34;5092743;28;20934;-78
2022/09/03 09:02:07;;;;;;;9.20;8.10;;;;;;;-143.84;64.62;45070.00;5092643;28;20917;-79
2022/09/03 09:04:48;;;;;;;10.00;9.00;;;;;;;-143.84;63.03;45031.94;5092719;28;21213;-78
2022/09/03 09:07:20;;;;;;;13.00;9.00;;;;;;;-143.84;62.14;45052.88;5093168;28;20436;-78
2022/09/03 09:09:56;;;;;;;9.60;8.60;;;;;;;-143.84;62.58;45070.00;5092317;28;20483;-78
2022/09/03 09:12:33;;;;;;;17.20;10.10;;;;;;;-143.84;63.85;45056.69;5092594;28;20440;-78
2022/09/03 09:15:12;;;;;;;10.70;8.20;;;;;;;-143.84;64.76;45054.78;5087328;28;20455;-78
2022/09/03 09:18:01;;;;;;;11.63;10.13;;;;;;;-143.84;65.05;45056.69;5091222;28;20436;-78
2022/09/03 09:20:36;;;;;;;11.73;9.37;;;;;;;-143.84;66.81;45070.00;5075262;28;20536;-78
2022/09/03 09:23:06;;;;;;;11.93;10.00;;;;;;;-143.84;67.17;45056.69;5081798;28;20444;-78
2022/09/03 09:25:41;;;;;;;12.07;9.83;;;;;;;-143.84;68.45;45077.63;5082238;28;20457;-77
2022/09/03 09:28:18;;;;;;;16.50;9.33;;;;;;;-143.84;70.16;45056.69;5075207;28;20455;-77
2022/09/03 09:30:47;;;;;;;10.30;8.70;;;;;;;-143.84;71.34;45079.53;5079063;28;20448;-77
2022/09/03 09:33:14;;;;;;;10.50;8.63;;;;;;;-143.84;72.85;45073.81;5071973;28;20518;-78
2022/09/03 09:35:42;;;;;;;10.60;9.33;;;;;;;-143.84;72.46;45070.00;5074301;28;20441;-78
2022/09/03 09:38:10;;;;;;;13.27;9.30;;;;;;;-143.84;71.46;45083.34;5071985;28;21234;-78
2022/09/03 09:40:41;;;;;;;10.43;8.57;;;;;;;-143.84;71.75;45090.97;5075049;28;20444;-78
2022/09/03 09:43:11;;;;;;;8.60;7.37;;;;;;;-143.84;69.97;45079.53;5071791;28;20444;-77
2022/09/03 09:45:40;;;;;;;8.13;7.33;;;;;;;-143.84;68.34;45062.41;5073600;28;20444;-77
2022/09/03 09:48:18;;;;;;;7.13;6.50;;;;;;;-143.84;67.43;45081.44;5080976;28;20548;-77
2022/09/03 09:50:46;;;;;;;5.97;5.47;;;;;;;-143.84;66.81;45043.34;5070829;28;20464;-77
2022/09/03 09:53:17;;;;;;;7.00;6.40;;;;;;;-143.84;65.97;45056.69;5080884;28;20910;-76
2022/09/03 09:55:53;;;;;;;6.30;5.70;;;;;;;-143.84;65.43;45083.34;5078237;28;20441;-77
2022/09/03 09:58:22;;;;;;;10.03;6.23;;;;;;;-143.84;65.85;45056.69;5080919;28;20450;-77
2022/09/03 10:01:12;;;;;;;7.70;6.90;;;;;;;-143.84;66.70;45071.91;5074166;28;20539;-77
2022/09/03 10:03:48;;;;;;;5.93;5.43;;;;;;;-143.84;68.09;45070.00;5072071;28;20540;-77
2022/09/03 10:09:09;;;;;;;7.23;6.43;;;;;;;-143.84;67.82;45090.97;5071757;28;20502;-77
2022/09/03 10:11:39;;;;;;;7.30;6.20;;;;;;;-143.84;67.82;45060.50;5080600;28;20439;-77
2022/09/03 10:14:15;;;;;;;5.80;5.20;;;;;;;-143.84;65.63;45064.31;5078460;28;20440;-77
2022/09/03 10:16:47;;;;;;;5.63;5.13;;;;;;;-143.84;65.71;45092.88;5070982;28;20439;-77
2022/09/03 10:19:19;;;;;;;5.53;5.13;;;;;;;-143.84;67.16;45077.63;5074780;28;20449;-77
2022/09/03 10:21:54;;;;;;;7.27;5.80;;;;;;;-143.84;67.52;45098.56;5076336;28;20948;-77
2022/09/03 10:24:47;;;;;;;12.10;6.03;;;;;;;-143.84;66.81;45090.97;5070474;28;20535;-77
2022/09/03 10:27:18;;;;;;;6.03;5.43;;;;;;;-143.84;66.16;45071.91;5071899;28;20488;-77
2022/09/03 10:29:45;;;;;;;4.77;4.47;;;;;;;-143.84;65.92;45071.91;5069784;28;20472;-77
2022/09/03 10:32:29;;;;;;;11.03;4.33;;;;;;;-143.84;66.17;45068.13;5073122;28;20445;-77
2022/09/03 10:35:09;;;;;;;5.00;4.40;;;;;;;-143.84;65.06;45081.44;5072174;28;20447;-77
2022/09/03 10:37:40;;;;;;;5.57;5.10;;;;;;;-143.84;64.42;45066.22;5073303;28;20476;-77
2022/09/03 10:40:29;;;;;;;9.17;4.47;;;;;;;-143.84;64.79;45070.00;5074016;28;21148;-77
2022/09/03 10:43:09;;;;;;;7.87;4.53;;;;;;;-143.84;63.41;45043.34;5075404;28;20538;-77
2022/09/03 10:45:43;;;;;;;5.23;4.10;;;;;;;-143.84;63.68;45073.81;5090287;28;20463;-77
2022/09/03 10:48:26;;;;;;;8.23;4.60;;;;;;;-143.84;64.76;45064.31;5090440;28;20431;-77
2022/09/03 10:50:57;;;;;;;4.20;3.90;;;;;;;-143.84;62.91;45079.53;5090619;28;20452;-77
2022/09/03 10:53:49;;;;;;;5.20;4.77;;;;;;;-143.84;63.06;45062.41;5090112;28;20483;-77
2022/09/03 10:56:23;;;;;;;4.93;4.40;;;;;;;-143.84;63.77;45079.53;5090577;28;20431;-77
2022/09/03 10:59:10;;;;;;;6.67;5.50;;;;;;;-143.84;64.79;45052.88;5094190;28;20440;-77
2022/09/03 11:01:44;;;;;;;6.50;4.73;;;;;;;-143.84;65.02;45090.97;5094401;28;20450;-77
2022/09/03 11:04:26;;;;;;;5.27;4.87;;;;;;;-143.84;63.54;45045.25;5094467;28;20438;-76
2022/09/03 11:06:55;;;;;;;6.23;5.60;;;;;;;-143.84;64.06;45062.41;5094058;28;20517;-76
2022/09/03 11:09:28;;;;;;;5.20;4.70;;;;;;;-143.84;63.38;45054.78;5094276;28;21011;-76
2022/09/03 11:11:58;;;;;;;5.27;4.83;;;;;;;-143.84;63.24;45060.50;5094046;28;20431;-76
2022/09/03 11:14:34;;;;;;;5.10;4.60;;;;;;;-143.84;63.16;45062.41;5093120;28;20447;-70
2022/09/03 11:17:07;;;;;;;5.03;4.63;;;;;;;-143.84;64.29;45075.72;5092447;28;20454;-71
2022/09/03 11:19:44;;;;;;;5.77;5.27;;;;;;;-143.84;63.43;45056.69;5092550;28;20443;-68
2022/09/03 11:22:15;;;;;;;4.67;4.27;;;;;;;-143.84;63.46;45068.13;5083448;28;20436;-68
2022/09/03 11:24:44;;;;;;;6.97;4.07;;;;;;;-143.84;63.24;45045.25;5092732;28;20439;-68
2022/09/03 11:27:25;;;;;;;6.47;5.50;;;;;;;-143.84;62.92;45089.06;5092447;28;20470;-68
2022/09/03 11:29:59;;;;;;;4.50;4.20;;;;;;;-143.84;63.07;45041.44;5089682;28;20509;-72
2022/09/03 11:32:32;;;;;;;6.00;5.50;;;;;;;-143.84;63.18;45062.41;5082678;28;20466;-72
2022/09/03 11:34:59;;;;;;;5.53;5.07;;;;;;;-143.84;63.63;45049.06;5074279;28;20502;-70
2022/09/03 11:37:29;;;;;;;6.70;4.50;;;;;;;-143.84;62.28;45070.00;5079636;28;20447;-68
2022/09/03 11:40:05;;;;;;;6.13;5.40;;;;;;;-143.84;63.26;45049.06;5071405;28;20436;-69
2022/09/03 11:42:37;;;;;;;5.20;4.70;;;;;;;-143.84;62.73;45062.41;5071187;28;21007;-70
2022/09/03 11:45:23;;;;;;;5.27;4.73;;;;;;;-143.84;64.14;45047.16;5071476;28;20452;-69
2022/09/03 11:47:51;;;;;;;4.73;4.33;;;;;;;-143.84;64.26;45064.31;5070942;28;20452;-69
2022/09/03 11:50:23;;;;;;;8.10;4.37;;;;;;;-143.84;63.25;45054.78;5071447;28;20479;-73
2022/09/03 11:52:53;;;;;;;4.17;3.90;;;;;;;-143.84;62.72;45073.81;5070747;28;20495;-72
2022/09/03 11:55:30;;;;;;;4.90;4.43;;;;;;;-143.84;63.23;45068.13;5071243;28;21357;-72
2022/09/03 11:57:57;;;;;;;6.20;4.93;;;;;;;-143.84;63.27;45043.34;5071408;28;20485;-69
2022/09/03 12:00:26;;;;;;;6.97;5.10;;;;;;;-143.84;63.23;45066.22;5072768;28;20806;-69
2022/09/03 12:03:01;;;;;;;6.13;4.50;;;;;;;-143.84;63.34;45100.47;5072257;28;20456;-69
2022/09/03 12:05:41;;;;;;;7.40;5.00;;;;;;;-143.84;63.87;45039.53;5071459;28;20834;-69
2022/09/03 12:08:54;;;;;;;5.07;4.67;;;;;;;-143.84;63.24;45056.69;5072208;28;20452;-69
2022/09/03 12:11:43;;;;;;;6.53;4.70;;;;;;;-143.84;63.38;45054.78;5052234;28;20452;-69
2022/09/03 12:14:20;;;;;;;5.20;4.80;;;;;;;-143.84;63.76;45050.97;5070661;28;20460;-69
2022/09/03 12:17:04;;;;;;;5.53;5.13;;;;;;;-143.84;64.75;45068.13;5073848;28;20471;-69
2022/09/03 12:19:38;;;;;;;5.37;4.97;;;;;;;-143.84;64.54;45083.34;5070725;28;20447;-69
2022/09/03 12:22:06;;;;;;;5.37;4.87;;;;;;;-143.84;65.04;45102.38;5073304;28;20565;-78
2022/09/03 12:24:36;;;;;;;6.40;5.80;;;;;;;-143.84;65.80;45085.25;5073612;28;20440;-78
2022/09/03 12:27:04;;;;;;;7.00;4.93;;;;;;;-143.84;67.13;45079.53;5073782;28;20543;-78
2022/09/03 12:29:32;;;;;;;5.40;5.00;;;;;;;-143.84;66.80;45089.06;5071723;28;20558;-78
2022/09/03 12:32:10;;;;;;;6.30;5.80;;;;;;;-143.84;67.51;45092.88;5072344;28;20494;-78
2022/09/03 12:34:37;;;;;;;9.97;5.03;;;;;;;-143.84;68.27;45079.53;5087689;28;20486;-78
2022/09/03 12:37:16;;;;;;;7.17;6.17;;;;;;;-143.84;69.35;45098.56;5093717;28;20431;-78
2022/09/03 12:39:51;;;;;;;5.87;5.40;;;;;;;-143.84;68.78;45094.78;5094655;28;20509;-78
2022/09/03 12:42:23;;;;;;;5.90;5.30;;;;;;;-143.84;67.51;45083.34;5096426;28;20510;-77
2022/09/03 12:44:50;;;;;;;5.60;5.03;;;;;;;-143.84;66.80;45089.06;5094171;28;20489;-78
2022/09/03 12:47:22;;;;;;;5.27;4.77;;;;;;;-143.84;68.35;45064.31;5094771;28;20443;-78
2022/09/03 12:49:51;;;;;;;7.20;4.70;;;;;;;-143.84;66.81;45056.69;5093282;28;20562;-78
2022/09/03 12:52:25;;;;;;;6.00;5.50;;;;;;;-143.84;67.34;45089.06;5092440;28;20447;-78
2022/09/03 12:54:58;;;;;;;5.27;4.87;;;;;;;-143.84;67.88;45085.25;5092946;28;20436;-78
2022/09/03 12:57:30;;;;;;;6.77;4.47;;;;;;;-143.84;68.72;45071.91;5092344;28;21194;-78
2022/09/03 13:00:01;;;;;;;5.50;5.00;;;;;;;-143.84;68.88;45094.78;5093105;28;20448;-78
2022/09/03 13:02:37;;;;;;;6.30;4.60;;;;;;;-143.84;69.77;45081.44;5091613;28;20509;-78
2022/09/03 13:05:06;;;;;;;8.20;4.83;;;;;;;-143.84;68.75;45075.72;5092761;28;20797;-78
2022/09/03 13:07:37;;;;;;;5.27;4.83;;;;;;;-143.84;68.78;45068.13;5091821;28;20470;-80
2022/09/03 13:10:07;;;;;;;5.23;4.63;;;;;;;-143.84;68.81;45089.06;5092435;28;20483;-77
2022/09/03 13:12:48;;;;;;;5.43;5.00;;;;;;;-143.84;69.40;45098.56;5087539;28;20525;-75
2022/09/03 13:15:21;;;;;;;6.17;5.60;;;;;;;-143.84;69.49;45073.81;5080426;28;20452;-75
2022/09/03 13:18:20;;;;;;;5.37;4.87;;;;;;;-143.84;69.66;45077.63;5076960;28;20459;-77
2022/09/03 13:21:00;;;;;;;6.43;5.83;;;;;;;-143.84;70.15;45092.88;5070636;28;20934;-77
2022/09/03 13:23:43;;;;;;;5.73;5.23;;;;;;;-143.84;69.81;45096.66;5074389;28;20463;-76
2022/09/03 13:26:25;;;;;;;6.17;4.87;;;;;;;-143.84;69.89;45094.78;5072455;28;21039;-75
2022/09/03 13:29:14;;;;;;;6.40;5.80;;;;;;;-143.84;70.60;45102.38;5073600;28;20480;-75
2022/09/03 13:31:47;;;;;;;7.57;5.33;;;;;;;-143.84;70.61;45077.63;5070723;28;20452;-75
2022/09/03 13:34:22;;;;;;;9.33;6.57;;;;;;;-143.84;70.24;45083.34;5074134;28;20440;-75
2022/09/03 13:36:54;;;;;;;5.50;5.10;;;;;;;-143.84;70.21;45102.38;5074391;28;20527;-74
2022/09/03 13:39:28;;;;;;;6.27;5.67;;;;;;;-143.84;69.94;45100.47;5076765;28;20451;-75
2022/09/03 13:42:05;;;;;;;8.90;6.07;;;;;;;-143.84;69.43;45102.38;5071494;28;20491;-75
2022/09/03 13:44:41;;;;;;;7.00;5.93;;;;;;;-143.84;70.08;45090.97;5073402;28;20483;-75
2022/09/03 13:47:13;;;;;;;7.00;6.30;;;;;;;-143.84;70.34;45083.34;5076006;28;20444;-75
2022/09/03 13:52:41;;;;;;;8.00;6.10;;;;;;;-143.84;70.70;45117.63;5083754;28;20828;-75
2022/09/03 13:55:13;;;;;;;7.17;6.57;;;;;;;-143.84;71.47;45106.19;5079386;28;20529;-75
2022/09/03 13:57:47;;;;;;;7.50;6.80;;;;;;;-143.84;71.42;45087.16;5081947;28;20480;-75
2022/09/03 14:00:25;;;;;;;6.30;5.47;;;;;;;-143.84;71.58;45071.91;5070774;28;20456;-75
2022/09/03 14:02:58;;;;;;;8.20;5.80;;;;;;;-143.84;71.68;45098.56;5073530;28;20443;-75
2022/09/03 14:05:40;;;;;;;6.93;6.33;;;;;;;-143.84;72.56;45079.53;5073804;28;20457;-75
2022/09/03 14:08:18;;;;;;;5.53;5.03;;;;;;;-143.84;72.86;45073.81;5081118;28;21265;-75
2022/09/03 14:10:56;;;;;;;5.60;5.10;;;;;;;-143.84;73.14;45092.88;5073158;28;20488;-76
2022/09/03 14:13:36;;;;;;;11.87;5.97;;;;;;;-143.84;72.90;45098.56;5073861;28;20463;-75
2022/09/03 14:16:08;;;;;;;5.20;4.80;;;;;;;-143.84;73.48;45106.19;5072974;28;20484;-75
2022/09/03 14:18:46;;;;;;;5.70;5.20;;;;;;;-143.84;73.89;45115.72;5072620;28;20578;-75
2022/09/03 14:21:20;;;;;;;5.37;4.87;;;;;;;-143.84;74.29;45108.09;5075985;28;20458;-75
2022/09/03 14:23:55;;;;;;;5.60;5.10;;;;;;;-143.84;75.35;45127.13;5075327;28;20449;-75
2022/09/03 14:26:27;;;;;;;4.43;4.03;;;;;;;-143.84;75.18;45113.81;5070929;28;20463;-75
2022/09/03 14:29:00;;;;;;;6.63;4.00;;;;;;;-143.84;75.29;45077.63;5075146;28;20877;-75
2022/09/03 14:31:51;;;;;;;4.37;3.97;;;;;;;-143.84;75.45;45110.00;5074029;28;20472;-75
2022/09/03 14:34:32;;;;;;;4.37;3.97;;;;;;;-143.84;75.86;45119.53;5048994;28;21032;-75
2022/09/03 14:37:09;;;;;;;3.90;3.43;;;;;;;-143.84;76.08;45102.38;5074224;28;20449;-75
2022/09/03 14:39:47;;;;;;;4.33;4.03;;;;;;;-143.84;76.42;45102.38;5074414;28;20460;-75
2022/09/03 14:42:43;;;;;;;4.80;4.40;;;;;;;-143.84;77.49;45085.25;5069579;28;20445;-75
2022/09/03 14:45:26;;;;;;;4.80;4.40;;;;;;;-143.84;77.94;45094.78;5071752;28;20445;-75
2022/09/03 14:48:13;;;;;;;4.80;4.50;;;;;;;-143.84;78.68;45106.19;5073930;28;20975;-75
2022/09/03 14:50:51;;;;;;;7.30;6.63;;;;;;;-143.84;79.08;45102.38;5073141;28;20997;-75
2022/09/03 14:53:49;;;;;;;7.60;4.97;;;;;;;-143.84;79.19;45130.94;5080427;28;20488;-75
2022/09/03 14:56:42;;;;;;;4.27;3.97;;;;;;;-143.84;79.84;45106.19;5081765;28;20455;-75
2022/09/03 14:59:25;;;;;;;6.73;6.13;;;;;;;-143.84;79.81;45108.09;5084723;28;20840;-75
2022/09/03 15:02:12;;;;;;;14.83;5.70;;;;;;;-143.84;79.32;45089.06;5074627;28;20506;-75
2022/09/03 15:05:03;;;;;;;7.00;6.20;;;;;;;-143.84;79.21;45130.94;5074591;28;20445;-75
2022/09/03 15:07:36;;;;;;;5.20;4.70;;;;;;;-143.84;78.74;45121.44;5072935;28;20445;-75
2022/09/03 15:10:15;;;;;;;7.73;6.43;;;;;;;-143.84;78.66;45117.63;5073049;28;20841;-75
2022/09/03 15:12:48;;;;;;;5.40;5.00;;;;;;;-143.84;79.08;45090.97;5076403;28;20471;-75
2022/09/03 15:15:20;;;;;;;10.63;5.93;;;;;;;-143.84;79.39;45100.47;5070181;28;20432;-74
2022/09/03 15:18:00;;;;;;;9.90;6.40;;;;;;;-143.84;79.56;45129.03;5070324;28;20483;-75
2022/09/03 15:20:36;;;;;;;6.80;6.00;;;;;;;-143.84;79.94;45123.34;5070448;28;20969;-75
2022/09/03 15:23:24;;;;;;;6.30;5.70;;;;;;;-143.84;80.43;45104.28;5074926;28;20452;-75
2022/09/03 15:26:38;;;;;;;8.70;6.27;;;;;;;-143.84;80.60;45146.19;5080882;28;20457;-75
2022/09/03 15:29:25;;;;;;;6.90;6.30;;;;;;;-143.84;81.19;45111.91;5070243;28;20448;-75
2022/09/03 15:31:59;;;;;;;7.10;6.30;;;;;;;-143.84;81.30;45123.34;5077550;28;21028;-75
2022/09/03 15:34:53;;;;;;;8.27;6.97;;;;;;;-143.84;81.74;45127.13;5077894;28;20952;-75